Time;durP1;ratioP1;P1;durP2;ratioP2;P2;SDS_P1;SDS_P2;PMS_P1;PMS_P2;Temp;Humidity;BMP_temperature;BMP_pressure;BME280_temperature;BME280_humidity;BME280_pressure;Samples;Min_cycle;Max_cycle;Signal;HPM_P1;HPM_P2
2023/09/04 00:02:00;;;;;;;4.67;4.00;;;;;;;17.74;100.00;100275.03;5029267;28;20744;-77
2023/09/04 00:04:29;;;;;;;4.30;4.00;;;;;;;17.72;100.00;100278.00;5026276;28;20210;-77
2023/09/04 00:06:56;;;;;;;4.23;3.93;;;;;;;17.73;100.00;100281.53;5031384;28;20219;-78
2023/09/04 00:09:25;;;;;;;4.60;3.80;;;;;;;17.61;100.00;100276.22;5017554;28;20191;-77
2023/09/04 00:11:52;;;;;;;4.20;3.80;;;;;;;17.64;100.00;100277.63;5021746;28;20192;-78
2023/09/04 00:14:20;;;;;;;4.07;3.77;;;;;;;17.62;100.00;100280.56;5028754;28;20560;-78
2023/09/04 00:16:47;;;;;;;4.20;3.80;;;;;;;17.56;100.00;100287.75;5028099;28;20250;-77
2023/09/04 00:19:17;;;;;;;4.20;3.90;;;;;;;17.50;100.00;100296.06;5026965;28;20199;-77
2023/09/04 00:21:46;;;;;;;4.27;3.97;;;;;;;17.42;100.00;100297.31;5028610;28;20207;-77
2023/09/04 00:24:13;;;;;;;4.47;4.17;;;;;;;17.39;100.00;100288.88;5028168;28;20214;-80
2023/09/04 00:26:41;;;;;;;4.47;4.17;;;;;;;17.47;100.00;100291.97;5029961;28;20192;-78
2023/09/04 00:29:10;;;;;;;4.90;4.50;;;;;;;17.40;100.00;100293.22;5027005;28;20234;-80
2023/09/04 00:31:37;;;;;;;4.97;4.57;;;;;;;17.34;100.00;100294.19;5021553;28;20188;-79
2023/09/04 00:34:05;;;;;;;4.60;4.20;;;;;;;17.38;100.00;100293.47;5007548;28;20201;-80
2023/09/04 00:36:32;;;;;;;4.60;4.30;;;;;;;17.33;100.00;100301.50;5023768;28;20199;-79
2023/09/04 00:39:01;;;;;;;5.80;4.33;;;;;;;17.23;100.00;100287.81;5020734;28;20193;-79
2023/09/04 00:41:29;;;;;;;4.57;4.17;;;;;;;17.24;100.00;100285.91;5029884;28;20241;-79
2023/09/04 00:43:56;;;;;;;4.40;4.00;;;;;;;17.22;100.00;100291.56;5008910;28;20694;-79
2023/09/04 00:46:24;;;;;;;4.70;4.30;;;;;;;17.23;100.00;100290.50;5021291;28;20195;-79
2023/09/04 00:48:52;;;;;;;4.97;4.47;;;;;;;17.19;100.00;100292.06;5019682;28;20192;-78
2023/09/04 00:51:19;;;;;;;4.63;4.27;;;;;;;17.30;100.00;100293.88;4989828;28;20203;-79
2023/09/04 00:53:48;;;;;;;4.43;3.90;;;;;;;17.23;100.00;100300.50;5026420;28;20667;-78
2023/09/04 00:56:16;;;;;;;4.17;3.87;;;;;;;17.18;100.00;100296.66;5008811;28;20673;-78
2023/09/04 00:58:44;;;;;;;5.60;4.67;;;;;;;17.15;100.00;100296.34;5009431;28;20191;-77
2023/09/04 01:01:12;;;;;;;4.57;4.27;;;;;;;17.10;100.00;100302.50;5005564;28;20291;-76
2023/09/04 01:03:41;;;;;;;4.70;4.37;;;;;;;17.09;100.00;100303.56;5007343;28;20214;-77
2023/09/04 01:06:09;;;;;;;4.67;4.27;;;;;;;17.07;100.00;100300.28;5026027;28;20277;-78
2023/09/04 01:08:38;;;;;;;4.73;4.33;;;;;;;17.05;100.00;100296.16;5032931;28;20194;-78
2023/09/04 01:11:14;;;;;;;5.53;4.57;;;;;;;17.05;100.00;100302.41;5030881;28;20247;-78
2023/09/04 01:13:50;;;;;;;4.80;4.30;;;;;;;17.04;100.00;100295.34;4997395;28;20202;-78
2023/09/04 01:16:18;;;;;;;4.40;4.10;;;;;;;17.01;100.00;100295.03;5003221;28;20194;-78
2023/09/04 01:18:47;;;;;;;4.80;4.30;;;;;;;16.99;100.00;100287.13;5010233;28;20188;-78
2023/09/04 01:21:16;;;;;;;5.03;4.30;;;;;;;16.93;100.00;100281.91;5031915;28;20281;-78
2023/09/04 01:23:46;;;;;;;4.57;4.17;;;;;;;16.92;100.00;100283.78;5012025;28;20211;-78
2023/09/04 01:26:25;;;;;;;4.57;4.17;;;;;;;16.92;100.00;100280.25;5015309;28;20205;-78
2023/09/04 01:28:53;;;;;;;4.60;4.20;;;;;;;16.87;100.00;100285.59;5010159;28;20191;-78
2023/09/04 01:31:27;;;;;;;4.90;4.50;;;;;;;16.90;100.00;100280.50;5034094;28;20273;-78
2023/09/04 01:34:19;;;;;;;4.73;4.33;;;;;;;16.73;100.00;100280.50;5011668;28;20190;-75
2023/09/04 01:36:52;;;;;;;4.73;4.27;;;;;;;16.69;100.00;100268.53;5002285;28;20743;-77
2023/09/04 01:39:21;;;;;;;4.70;4.27;;;;;;;16.70;100.00;100278.25;5016033;28;20252;-79
2023/09/04 01:41:49;;;;;;;4.50;4.20;;;;;;;16.60;100.00;100269.16;5000610;28;20260;-82
2023/09/04 01:44:18;;;;;;;4.47;4.17;;;;;;;16.58;100.00;100269.38;5014768;28;20599;-77
2023/09/04 01:46:46;;;;;;;4.80;4.40;;;;;;;16.48;100.00;100276.47;5005198;28;20189;-78
2023/09/04 01:49:15;;;;;;;4.43;4.13;;;;;;;16.57;100.00;100281.22;5006675;28;20685;-78
2023/09/04 01:51:42;;;;;;;4.60;4.20;;;;;;;16.45;100.00;100275.06;5027881;28;20570;-78
2023/09/04 01:54:12;;;;;;;4.30;3.87;;;;;;;16.39;100.00;100286.84;5023938;28;20715;-79
2023/09/04 01:56:40;;;;;;;4.50;4.13;;;;;;;16.35;100.00;100279.47;5028200;28;20209;-77
2023/09/04 01:59:08;;;;;;;4.73;4.43;;;;;;;16.43;100.00;100288.00;5013736;28;20206;-77
2023/09/04 02:01:36;;;;;;;4.93;4.50;;;;;;;16.37;100.00;100293.56;5015799;28;20202;-78
2023/09/04 02:04:05;;;;;;;4.50;4.20;;;;;;;16.46;100.00;100298.34;5033292;28;20203;-78
2023/09/04 02:06:33;;;;;;;4.20;3.80;;;;;;;16.37;100.00;100307.09;5028963;28;20219;-78
2023/09/04 02:09:00;;;;;;;4.87;4.50;;;;;;;16.48;100.00;100309.75;5027837;28;20245;-77
2023/09/04 02:11:28;;;;;;;4.80;4.40;;;;;;;16.51;100.00;100308.44;5027420;28;20230;-77
2023/09/04 02:13:57;;;;;;;4.97;4.30;;;;;;;16.47;100.00;100310.00;5007588;28;20572;-78
2023/09/04 02:16:27;;;;;;;4.70;4.30;;;;;;;16.47;100.00;100318.13;5011195;28;20198;-77
2023/09/04 02:18:57;;;;;;;4.43;4.03;;;;;;;16.53;100.00;100314.44;5003936;28;20206;-78
2023/09/04 02:21:24;;;;;;;5.50;4.10;;;;;;;16.56;100.00;100317.47;5028213;28;20241;-78
2023/09/04 02:23:54;;;;;;;4.17;3.83;;;;;;;16.62;100.00;100318.41;5011976;28;20205;-80
2023/09/04 02:26:21;;;;;;;6.10;4.30;;;;;;;16.59;100.00;100316.19;5029758;28;20660;-82
2023/09/04 02:28:49;;;;;;;4.50;4.10;;;;;;;16.53;100.00;100312.53;5029099;28;20581;-82
2023/09/04 02:31:17;;;;;;;4.40;4.10;;;;;;;16.51;100.00;100308.44;5030076;28;20645;-79
2023/09/04 02:33:46;;;;;;;4.10;3.80;;;;;;;16.45;100.00;100306.72;5031218;28;20242;-80
2023/09/04 02:36:16;;;;;;;4.43;3.90;;;;;;;16.45;100.00;100314.81;5029794;28;20229;-79
2023/09/04 02:38:43;;;;;;;4.50;4.10;;;;;;;16.47;100.00;100312.72;5028235;28;20206;-79
2023/09/04 02:41:11;;;;;;;4.40;4.00;;;;;;;16.41;100.00;100319.06;5029748;28;20218;-80
2023/09/04 02:43:40;;;;;;;4.67;4.27;;;;;;;16.34;100.00;100327.31;5028166;28;20190;-80
2023/09/04 02:46:07;;;;;;;4.60;4.20;;;;;;;16.30;100.00;100323.44;5025372;28;20688;-79
2023/09/04 02:48:35;;;;;;;4.43;4.03;;;;;;;16.20;100.00;100323.25;5027935;28;20244;-77
2023/09/04 02:51:05;;;;;;;4.83;4.43;;;;;;;16.23;100.00;100322.78;5029187;28;20476;-80
2023/09/04 02:53:33;;;;;;;4.60;4.20;;;;;;;16.26;100.00;100325.00;5011224;28;20221;-79
2023/09/04 02:56:02;;;;;;;4.47;4.17;;;;;;;16.17;100.00;100324.56;5030820;28;20190;-80
2023/09/04 02:58:30;;;;;;;4.80;4.20;;;;;;;16.11;100.00;100328.19;5029705;28;20229;-80
2023/09/04 03:00:58;;;;;;;4.27;3.87;;;;;;;16.09;100.00;100333.03;5024082;28;20203;-79
2023/09/04 03:03:26;;;;;;;4.60;4.20;;;;;;;16.06;100.00;100327.28;5014567;28;20202;-80
2023/09/04 03:05:56;;;;;;;5.37;4.87;;;;;;;16.02;100.00;100321.53;4996070;28;20227;-80
2023/09/04 03:08:24;;;;;;;5.07;4.20;;;;;;;16.03;100.00;100319.66;5013147;28;20194;-80
2023/09/04 03:10:54;;;;;;;4.60;4.20;;;;;;;16.05;100.00;100320.25;5030131;28;20241;-80
2023/09/04 03:13:22;;;;;;;4.60;4.27;;;;;;;16.03;100.00;100314.25;5014362;28;20249;-79
2023/09/04 03:15:49;;;;;;;4.73;4.23;;;;;;;15.94;100.00;100323.78;5012140;28;20198;-80
2023/09/04 03:18:17;;;;;;;5.13;4.17;;;;;;;15.97;100.00;100326.81;5009018;28;20225;-80
2023/09/04 03:20:44;;;;;;;5.03;4.60;;;;;;;15.88;100.00;100333.66;5006212;28;20215;-80
2023/09/04 03:23:13;;;;;;;4.67;4.27;;;;;;;15.89;100.00;100340.72;4979156;28;20273;-80
2023/09/04 03:25:41;;;;;;;4.67;4.27;;;;;;;15.84;100.00;100336.00;5012240;28;20292;-80
2023/09/04 03:28:09;;;;;;;5.70;4.20;;;;;;;15.84;100.00;100327.09;5014432;28;20296;-79
2023/09/04 03:30:37;;;;;;;4.97;4.57;;;;;;;15.81;100.00;100332.97;5006158;28;20198;-80
2023/09/04 03:33:07;;;;;;;4.80;4.40;;;;;;;15.83;100.00;100328.13;5024377;28;20559;-80
2023/09/04 03:35:36;;;;;;;4.73;4.33;;;;;;;15.79;100.00;100333.19;5006488;28;20190;-80
2023/09/04 03:38:04;;;;;;;5.00;4.60;;;;;;;15.82;100.00;100337.28;5027967;28;20262;-80
2023/09/04 03:40:32;;;;;;;4.63;4.30;;;;;;;15.81;100.00;100341.06;4995611;28;20211;-79
2023/09/04 03:43:00;;;;;;;4.70;4.30;;;;;;;15.73;100.00;100342.25;5006443;28;20260;-80
2023/09/04 03:45:34;;;;;;;5.10;4.70;;;;;;;15.74;100.00;100343.88;5027261;28;20229;-79
2023/09/04 03:48:02;;;;;;;4.67;4.27;;;;;;;15.83;100.00;100350.56;4995022;28;20293;-80
2023/09/04 03:50:30;;;;;;;4.90;4.50;;;;;;;15.78;100.00;100344.22;5020478;28;20269;-80
2023/09/04 03:53:02;;;;;;;5.10;4.60;;;;;;;15.71;100.00;100349.78;5003134;28;20203;-80
2023/09/04 03:55:31;;;;;;;4.47;4.07;;;;;;;15.74;100.00;100345.75;5003063;28;20203;-79
2023/09/04 03:57:59;;;;;;;4.93;4.43;;;;;;;15.66;100.00;100340.72;5023388;28;20675;-81
2023/09/04 04:00:26;;;;;;;5.33;4.70;;;;;;;15.66;100.00;100343.44;5023753;28;20670;-79
2023/09/04 04:02:54;;;;;;;4.43;4.03;;;;;;;15.63;100.00;100336.59;5021013;28;20187;-80
2023/09/04 04:05:23;;;;;;;4.60;4.20;;;;;;;15.54;100.00;100326.41;5023283;28;20243;-82
2023/09/04 04:07:50;;;;;;;4.50;4.20;;;;;;;15.52;100.00;100337.44;5020678;28;20222;-79
2023/09/04 04:10:20;;;;;;;5.17;4.40;;;;;;;15.48;100.00;100338.94;5026064;28;20268;-79
2023/09/04 04:12:53;;;;;;;4.53;4.13;;;;;;;15.42;100.00;100340.69;5023563;28;20306;-79
2023/09/04 04:15:21;;;;;;;4.67;4.27;;;;;;;15.42;100.00;100351.50;5000407;28;20205;-79
2023/09/04 04:17:49;;;;;;;5.20;4.40;;;;;;;15.30;100.00;100357.94;5026763;28;20187;-80
2023/09/04 04:20:20;;;;;;;5.20;4.80;;;;;;;15.30;100.00;100363.34;4997847;28;20237;-79
2023/09/04 04:22:48;;;;;;;4.63;4.23;;;;;;;15.22;100.00;100366.34;5004204;28;20198;-79
2023/09/04 04:25:16;;;;;;;4.33;4.03;;;;;;;15.21;100.00;100372.84;5023327;28;20294;-79
2023/09/04 04:27:45;;;;;;;4.43;4.03;;;;;;;15.20;100.00;100381.97;5023216;28;20241;-80
2023/09/04 04:30:13;;;;;;;4.60;4.20;;;;;;;15.18;100.00;100368.69;5006213;28;20238;-80
2023/09/04 04:32:41;;;;;;;4.87;4.40;;;;;;;15.16;100.00;100373.53;5023937;28;20187;-80
2023/09/04 04:35:09;;;;;;;4.67;4.27;;;;;;;15.12;100.00;100375.03;5007329;28;20199;-79
2023/09/04 04:37:36;;;;;;;4.80;4.40;;;;;;;15.15;100.00;100382.69;5006161;28;20207;-79
2023/09/04 04:40:06;;;;;;;5.73;4.37;;;;;;;15.17;100.00;100388.66;5013945;28;20209;-79
2023/09/04 04:42:40;;;;;;;4.63;4.03;;;;;;;15.15;100.00;100389.94;5006137;28;20488;-81
2023/09/04 04:45:10;;;;;;;6.83;4.87;;;;;;;15.13;100.00;100402.84;5007811;28;20301;-79
2023/09/04 04:47:38;;;;;;;5.40;4.67;;;;;;;15.22;100.00;100402.28;5003603;28;20191;-80
2023/09/04 04:50:09;;;;;;;4.60;4.10;;;;;;;15.28;100.00;100401.34;5009176;28;20198;-79
2023/09/04 04:52:36;;;;;;;4.60;4.20;;;;;;;15.19;100.00;100405.44;5001860;28;20189;-79
2023/09/04 04:55:06;;;;;;;4.27;3.93;;;;;;;15.21;100.00;100405.22;5025999;28;20198;-79
2023/09/04 04:57:33;;;;;;;4.40;4.00;;;;;;;15.23;100.00;100406.63;4994741;28;20252;-80
2023/09/04 05:00:07;;;;;;;4.67;3.73;;;;;;;15.24;100.00;100408.28;5009771;28;20272;-80
2023/09/04 05:02:37;;;;;;;4.50;4.10;;;;;;;15.31;100.00;100413.56;5017939;28;20203;-79
2023/09/04 05:05:05;;;;;;;4.17;3.87;;;;;;;15.38;100.00;100415.13;5001625;28;20209;-80
2023/09/04 05:07:33;;;;;;;4.40;4.03;;;;;;;15.48;100.00;100416.44;5030118;28;20207;-80
2023/09/04 05:10:01;;;;;;;4.40;4.00;;;;;;;15.53;100.00;100414.72;5011827;28;20284;-79
2023/09/04 05:12:29;;;;;;;4.30;3.90;;;;;;;15.56;100.00;100419.63;5002713;28;20701;-79
2023/09/04 05:14:56;;;;;;;4.37;3.90;;;;;;;15.59;100.00;100416.47;5016862;28;20577;-79
2023/09/04 05:17:26;;;;;;;4.33;3.87;;;;;;;15.65;100.00;100434.44;5004673;28;20209;-80
2023/09/04 05:19:54;;;;;;;3.93;3.60;;;;;;;15.69;100.00;100426.69;5008072;28;20223;-81
2023/09/04 05:22:24;;;;;;;4.70;4.27;;;;;;;15.81;100.00;100436.47;5011183;28;20210;-80
2023/09/04 05:24:54;;;;;;;4.33;4.03;;;;;;;15.90;100.00;100436.94;5024265;28;20285;-81
2023/09/04 05:27:22;;;;;;;4.17;3.87;;;;;;;15.99;100.00;100440.94;5014519;28;20187;-79
2023/09/04 05:29:52;;;;;;;4.50;4.10;;;;;;;16.08;100.00;100436.00;5032614;28;20190;-81
2023/09/04 05:32:20;;;;;;;3.90;3.60;;;;;;;16.20;100.00;100440.31;5023157;28;20207;-80
2023/09/04 05:34:52;;;;;;;4.00;3.70;;;;;;;16.29;100.00;100446.19;5014443;28;20199;-80
2023/09/04 05:37:21;;;;;;;4.20;3.90;;;;;;;16.43;100.00;100442.16;5030228;28;20198;-79
2023/09/04 05:39:49;;;;;;;3.97;3.60;;;;;;;16.54;100.00;100440.50;5029330;28;20365;-79
2023/09/04 05:42:16;;;;;;;4.33;3.93;;;;;;;16.63;100.00;100439.09;5033819;28;20186;-79
2023/09/04 05:44:44;;;;;;;3.90;3.60;;;;;;;16.74;100.00;100443.66;5015440;28;20198;-79
2023/09/04 05:47:11;;;;;;;4.30;3.77;;;;;;;16.78;100.00;100435.88;5025628;28;20206;-79
2023/09/04 05:49:39;;;;;;;3.93;3.63;;;;;;;16.81;100.00;100440.81;5031306;28;20194;-80
2023/09/04 05:52:08;;;;;;;3.70;3.40;;;;;;;16.93;100.00;100441.59;5017420;28;20195;-81
2023/09/04 05:54:35;;;;;;;3.73;3.40;;;;;;;17.01;100.00;100444.75;5033583;28;20214;-80
2023/09/04 05:57:03;;;;;;;3.93;3.43;;;;;;;17.10;100.00;100428.91;5026751;28;20646;-80
2023/09/04 05:59:30;;;;;;;3.60;3.27;;;;;;;17.25;100.00;100436.50;5028337;28;20195;-81
2023/09/04 06:01:58;;;;;;;3.60;3.30;;;;;;;17.23;100.00;100430.50;5005421;28;20285;-78
2023/09/04 06:04:25;;;;;;;3.60;3.30;;;;;;;17.32;100.00;100437.16;5029580;28;20199;-81
2023/09/04 06:06:54;;;;;;;4.00;3.60;;;;;;;17.49;100.00;100433.44;5020714;28;20232;-81
2023/09/04 06:09:21;;;;;;;3.47;3.10;;;;;;;17.58;100.00;100436.53;5026727;28;20206;-80
2023/09/04 06:11:49;;;;;;;3.37;3.07;;;;;;;17.76;100.00;100432.78;5022122;28;20205;-81
2023/09/04 06:14:17;;;;;;;3.63;3.10;;;;;;;17.66;100.00;100435.34;5004925;28;20279;-78
2023/09/04 06:16:44;;;;;;;3.50;3.20;;;;;;;17.75;100.00;100431.13;5029266;28;20194;-78
2023/09/04 06:19:13;;;;;;;3.13;2.87;;;;;;;17.60;100.00;100437.13;5024958;28;20203;-79
2023/09/04 06:21:41;;;;;;;3.17;2.93;;;;;;;17.79;100.00;100440.41;5021523;28;20266;-79
2023/09/04 06:24:08;;;;;;;3.67;3.23;;;;;;;17.98;100.00;100442.63;5025051;28;20281;-81
2023/09/04 06:26:35;;;;;;;3.50;3.07;;;;;;;17.92;100.00;100451.75;5022048;28;20210;-80
2023/09/04 06:29:03;;;;;;;3.30;3.00;;;;;;;17.77;100.00;100458.84;5027067;28;20201;-80
2023/09/04 06:31:31;;;;;;;3.30;3.00;;;;;;;17.96;100.00;100458.31;5024982;28;20199;-79
2023/09/04 06:33:58;;;;;;;4.40;3.03;;;;;;;17.86;100.00;100450.03;5028655;28;20199;-79
2023/09/04 06:36:26;;;;;;;3.40;3.03;;;;;;;18.10;100.00;100466.94;5029796;28;20194;-79
2023/09/04 06:38:54;;;;;;;2.83;2.63;;;;;;;18.27;100.00;100465.03;5021118;28;20666;-79
2023/09/04 06:41:22;;;;;;;3.13;2.77;;;;;;;18.34;100.00;100454.78;5029146;28;20269;-79
2023/09/04 06:43:52;;;;;;;3.93;2.97;;;;;;;18.39;100.00;100452.16;5023864;28;20191;-79
2023/09/04 06:46:19;;;;;;;3.40;2.67;;;;;;;18.32;100.00;100448.00;5023086;28;20211;-79
2023/09/04 06:48:47;;;;;;;5.23;3.00;;;;;;;18.37;100.00;100459.75;5015524;28;20191;-79
2023/09/04 06:51:16;;;;;;;3.20;2.90;;;;;;;18.51;100.00;100454.78;5030816;28;20198;-79
2023/09/04 06:53:44;;;;;;;2.70;2.43;;;;;;;18.59;100.00;100458.97;5029745;28;20194;-79
2023/09/04 06:56:11;;;;;;;2.87;2.67;;;;;;;18.68;100.00;100460.16;5007056;28;20264;-78
2023/09/04 06:58:39;;;;;;;3.67;2.80;;;;;;;18.46;100.00;100454.69;5027466;28;20195;-79
2023/09/04 07:01:06;;;;;;;3.17;2.83;;;;;;;18.56;100.00;100456.75;5027268;28;20206;-78
2023/09/04 07:03:34;;;;;;;3.33;2.80;;;;;;;18.76;100.00;100455.09;5024640;28;20190;-79
2023/09/04 07:06:04;;;;;;;2.83;2.60;;;;;;;18.71;100.00;100457.75;5019141;28;20281;-80
2023/09/04 07:08:31;;;;;;;2.70;2.50;;;;;;;18.87;100.00;100453.34;5021844;28;20278;-78
2023/09/04 07:11:02;;;;;;;2.83;2.53;;;;;;;18.95;100.00;100466.44;5023988;28;20223;-79
2023/09/04 07:13:32;;;;;;;3.17;2.63;;;;;;;19.13;100.00;100476.19;5026948;28;20214;-79
2023/09/04 07:16:02;;;;;;;2.60;2.20;;;;;;;19.23;100.00;100471.66;5027665;28;20290;-79
2023/09/04 07:18:29;;;;;;;2.50;2.30;;;;;;;18.96;100.00;100467.28;5026639;28;20245;-79
2023/09/04 07:20:58;;;;;;;2.57;2.37;;;;;;;19.46;100.00;100464.28;5005266;28;20198;-79
2023/09/04 07:23:26;;;;;;;2.60;2.40;;;;;;;19.59;100.00;100463.88;5022184;28;20200;-79
2023/09/04 07:25:56;;;;;;;2.73;2.40;;;;;;;19.73;100.00;100482.25;5027378;28;20215;-79
2023/09/04 07:28:24;;;;;;;3.23;2.53;;;;;;;19.42;100.00;100479.44;5006984;28;20222;-80
2023/09/04 07:31:08;;;;;;;3.90;2.50;;;;;;;19.48;100.00;100478.44;5024504;28;20200;-79
2023/09/04 07:33:36;;;;;;;2.60;2.40;;;;;;;19.39;100.00;100479.97;5011598;28;20202;-79
2023/09/04 07:36:04;;;;;;;2.60;2.40;;;;;;;19.08;100.00;100473.41;5023795;28;20204;-78
2023/09/04 07:38:34;;;;;;;6.20;2.70;;;;;;;19.30;100.00;100475.00;5008845;28;20199;-79
2023/09/04 07:41:03;;;;;;;2.40;2.20;;;;;;;19.01;100.00;100467.34;5024443;28;20215;-78
2023/09/04 07:43:33;;;;;;;3.43;2.40;;;;;;;19.20;100.00;100463.19;5021642;28;20271;-82
2023/09/04 07:46:03;;;;;;;2.40;2.13;;;;;;;19.07;100.00;100469.03;5028504;28;20207;-78
2023/09/04 07:48:35;;;;;;;2.60;2.13;;;;;;;18.59;100.00;100450.81;5026441;28;20190;-78
2023/09/04 07:51:05;;;;;;;3.60;2.20;;;;;;;18.75;100.00;100458.09;5027689;28;20191;-81
2023/09/04 07:53:48;;;;;;;2.20;2.00;;;;;;;18.54;100.00;100465.13;5026388;28;20252;-81
2023/09/04 07:56:16;;;;;;;3.00;2.20;;;;;;;18.75;100.00;100467.06;5013135;28;20188;-80
2023/09/04 07:58:44;;;;;;;2.57;2.30;;;;;;;18.88;100.00;100463.13;5030612;28;20199;-81
2023/09/04 08:01:15;;;;;;;2.67;2.37;;;;;;;19.06;100.00;100456.53;5028820;28;20191;-79
2023/09/04 08:03:44;;;;;;;2.40;2.20;;;;;;;19.05;100.00;100457.59;5029714;28;20190;-78
2023/09/04 08:06:11;;;;;;;4.87;2.10;;;;;;;19.16;100.00;100459.38;5030898;28;20224;-78
2023/09/04 08:08:38;;;;;;;2.50;1.73;;;;;;;19.13;100.00;100463.38;5030282;28;20199;-81
2023/09/04 08:11:06;;;;;;;3.00;2.10;;;;;;;19.09;100.00;100450.56;5011255;28;20239;-78
2023/09/04 08:13:34;;;;;;;2.40;2.20;;;;;;;19.12;100.00;100445.47;5015697;28;20283;-78
2023/09/04 08:16:02;;;;;;;2.40;1.97;;;;;;;19.16;100.00;100443.88;5000874;28;20684;-78
2023/09/04 08:18:30;;;;;;;3.27;2.13;;;;;;;19.21;100.00;100453.97;5007925;28;20251;-79
2023/09/04 08:20:59;;;;;;;2.43;1.80;;;;;;;19.67;100.00;100457.97;5008646;28;20576;-79
2023/09/04 08:23:26;;;;;;;2.90;1.80;;;;;;;19.75;100.00;100458.31;5006468;28;20638;-79
2023/09/04 08:26:01;;;;;;;2.10;1.80;;;;;;;19.59;100.00;100462.00;4999054;28;20215;-78
2023/09/04 08:28:28;;;;;;;2.40;2.10;;;;;;;19.55;100.00;100446.47;4996388;28;20202;-79
2023/09/04 08:30:56;;;;;;;3.60;2.13;;;;;;;19.59;100.00;100451.13;5003728;28;20219;-81
2023/09/04 08:33:24;;;;;;;2.73;1.80;;;;;;;19.54;100.00;100455.69;4998421;28;20187;-79
2023/09/04 08:35:52;;;;;;;2.77;1.90;;;;;;;19.67;100.00;100447.91;5007332;28;20236;-81
2023/09/04 08:38:21;;;;;;;2.07;1.87;;;;;;;19.69;100.00;100461.25;5000098;28;20254;-79
2023/09/04 08:40:48;;;;;;;2.97;1.80;;;;;;;19.50;100.00;100449.13;4999779;28;20193;-79
2023/09/04 08:43:17;;;;;;;2.30;1.83;;;;;;;19.64;100.00;100463.94;5003822;28;20198;-79
2023/09/04 08:45:45;;;;;;;1.73;1.40;;;;;;;19.61;100.00;100456.28;5011900;28;20304;-79
2023/09/04 08:48:15;;;;;;;2.20;1.77;;;;;;;19.60;100.00;100452.75;5013905;28;20209;-81
2023/09/04 08:50:43;;;;;;;3.30;1.80;;;;;;;19.84;100.00;100458.66;5007202;28;20219;-79
2023/09/04 08:53:11;;;;;;;2.23;1.73;;;;;;;19.97;100.00;100452.75;5004720;28;20201;-79
2023/09/04 08:55:38;;;;;;;2.83;2.03;;;;;;;19.87;100.00;100462.75;5009249;28;20641;-79
2023/09/04 08:58:07;;;;;;;2.57;1.90;;;;;;;19.84;100.00;100457.81;5014373;28;20277;-79
2023/09/04 09:00:34;;;;;;;2.83;2.07;;;;;;;19.69;100.00;100456.63;5006115;28;20194;-79
2023/09/04 09:03:02;;;;;;;3.50;2.30;;;;;;;19.90;100.00;100446.72;5014997;28;20324;-79
2023/09/04 09:05:33;;;;;;;2.17;1.97;;;;;;;20.04;100.00;100456.09;5014095;28;20187;-79
2023/09/04 09:08:03;;;;;;;3.20;2.00;;;;;;;20.13;100.00;100448.25;5013731;28;20581;-79
2023/09/04 09:10:31;;;;;;;4.37;2.00;;;;;;;19.63;100.00;100456.84;5013848;28;20482;-79
2023/09/04 09:13:01;;;;;;;2.33;2.13;;;;;;;19.62;100.00;100457.94;5006472;28;20281;-78
2023/09/04 09:15:31;;;;;;;2.00;1.90;;;;;;;19.63;100.00;100459.56;5007142;28;20195;-79
2023/09/04 09:17:59;;;;;;;2.50;2.00;;;;;;;20.20;100.00;100457.81;4998052;28;20193;-80
2023/09/04 09:20:36;;;;;;;2.30;2.10;;;;;;;20.68;100.00;100458.63;5001774;28;20193;-79
2023/09/04 09:23:05;;;;;;;3.60;2.27;;;;;;;21.08;100.00;100445.16;5003611;28;20670;-82
2023/09/04 09:25:34;;;;;;;2.53;2.30;;;;;;;21.09;100.00;100457.69;5014675;28;20193;-79
2023/09/04 09:28:05;;;;;;;2.60;2.00;;;;;;;20.90;100.00;100445.63;5000027;28;20277;-79
2023/09/04 09:30:34;;;;;;;2.63;2.13;;;;;;;20.63;100.00;100455.88;4998736;28;20203;-79
2023/09/04 09:33:12;;;;;;;2.60;2.17;;;;;;;21.02;100.00;100440.78;5006762;28;20197;-79
2023/09/04 09:35:40;;;;;;;2.33;2.00;;;;;;;21.10;100.00;100451.16;5005222;28;20191;-79
2023/09/04 09:38:08;;;;;;;2.50;2.30;;;;;;;21.32;100.00;100455.59;5005079;28;20204;-79
2023/09/04 09:40:36;;;;;;;3.97;1.90;;;;;;;21.39;100.00;100458.88;5010388;28;20194;-81
2023/09/04 09:43:04;;;;;;;1.93;1.80;;;;;;;21.85;100.00;100459.69;5007543;28;20702;-81
2023/09/04 09:45:33;;;;;;;2.00;1.80;;;;;;;21.88;100.00;100457.22;5004803;28;20273;-79
2023/09/04 09:48:06;;;;;;;2.17;1.90;;;;;;;22.09;100.00;100460.81;5009921;28;20284;-81
2023/09/04 09:50:37;;;;;;;3.07;1.93;;;;;;;21.83;100.00;100449.09;5010691;28;20678;-79
2023/09/04 09:53:06;;;;;;;4.80;1.90;;;;;;;22.01;100.00;100455.91;5001248;28;20181;-79
2023/09/04 09:55:35;;;;;;;4.00;2.00;;;;;;;22.28;100.00;100452.84;4998546;28;20244;-79
2023/09/04 09:58:05;;;;;;;3.83;1.90;;;;;;;21.63;100.00;100445.53;5003986;28;20239;-79
2023/09/04 10:00:35;;;;;;;4.27;2.23;;;;;;;22.09;100.00;100449.88;5001547;28;20192;-80
2023/09/04 10:03:03;;;;;;;2.77;2.00;;;;;;;21.25;100.00;100455.84;5000941;28;20215;-79
2023/09/04 10:05:30;;;;;;;2.23;2.03;;;;;;;20.94;100.00;100448.66;4982264;28;20253;-79
2023/09/04 10:08:01;;;;;;;2.00;1.80;;;;;;;21.64;100.00;100455.34;5009335;28;20221;-79
2023/09/04 10:10:36;;;;;;;2.90;2.00;;;;;;;22.10;100.00;100454.25;5014841;28;20329;-80
2023/09/04 10:13:15;;;;;;;2.42;1.90;;;;;;;22.47;100.00;100442.97;5023049;28;20222;-79
2023/09/04 10:15:46;;;;;;;2.20;2.00;;;;;;;22.48;100.00;100449.25;5001820;28;20200;-79
2023/09/04 10:18:26;;;;;;;2.80;2.20;;;;;;;22.36;100.00;100444.09;5015054;28;20668;-78
2023/09/04 10:20:57;;;;;;;3.65;2.40;;;;;;;22.18;100.00;100448.22;5024370;28;20224;-80
2023/09/04 10:23:35;;;;;;;3.00;2.42;;;;;;;22.13;100.00;100439.22;5013201;28;20273;-80
2023/09/04 10:26:07;;;;;;;2.55;2.10;;;;;;;22.25;100.00;100439.78;5025285;28;20218;-79
2023/09/04 10:28:45;;;;;;;2.33;2.07;;;;;;;22.27;97.22;100435.66;5016043;28;20249;-79
2023/09/04 10:31:14;;;;;;;2.58;2.33;;;;;;;22.63;95.20;100432.81;5031254;28;20259;-79
2023/09/04 10:33:43;;;;;;;2.95;1.98;;;;;;;22.80;95.15;100433.31;5007960;28;20694;-79
2023/09/04 10:36:12;;;;;;;2.20;2.00;;;;;;;22.47;93.99;100426.59;5028559;28;20187;-79
2023/09/04 10:38:41;;;;;;;1.90;1.80;;;;;;;22.40;94.25;100423.31;5029915;28;20472;-79
2023/09/04 10:41:30;;;;;;;6.38;2.00;;;;;;;22.19;96.91;100408.13;5022792;28;20273;-80
2023/09/04 10:43:58;;;;;;;3.65;1.95;;;;;;;22.01;98.76;100409.53;5007168;28;20661;-79
2023/09/04 10:46:27;;;;;;;2.53;2.20;;;;;;;22.29;96.23;100410.81;5019282;28;20676;-80
2023/09/04 10:48:56;;;;;;;1.88;1.77;;;;;;;21.89;94.46;100395.31;5022586;28;20197;-79
2023/09/04 10:51:36;;;;;;;2.65;1.95;;;;;;;22.01;94.58;100395.88;5017788;28;20194;-80
2023/09/04 10:54:24;;;;;;;2.20;2.00;;;;;;;22.64;93.43;100394.28;5027076;28;20194;-79
2023/09/04 10:56:58;;;;;;;2.38;2.13;;;;;;;22.94;91.63;100396.06;5025462;28;20677;-79
2023/09/04 10:59:28;;;;;;;2.28;2.08;;;;;;;22.74;90.41;100383.34;5010127;28;20265;-82
2023/09/04 11:01:58;;;;;;;2.25;2.05;;;;;;;22.92;92.27;100390.06;5022416;28;20598;-81
2023/09/04 11:04:49;;;;;;;2.33;1.92;;;;;;;22.80;89.39;100390.41;5026778;28;20236;-79
2023/09/04 11:07:23;;;;;;;2.15;1.95;;;;;;;23.00;88.91;100394.13;5020476;28;20215;-80
2023/09/04 11:10:27;;;;;;;2.30;1.90;;;;;;;22.75;87.76;100401.38;5019765;28;20701;-79
2023/09/04 11:12:56;;;;;;;1.90;1.80;;;;;;;22.81;89.32;100397.53;5017245;28;20220;-81
2023/09/04 11:15:26;;;;;;;2.17;1.70;;;;;;;23.00;88.95;100402.31;5020513;28;20198;-79
2023/09/04 11:17:53;;;;;;;2.90;1.70;;;;;;;22.34;84.49;100391.69;5021106;28;20253;-79
2023/09/04 11:20:26;;;;;;;2.95;1.88;;;;;;;22.54;81.46;100388.03;5021103;28;20221;-79
2023/09/04 11:22:55;;;;;;;2.05;1.70;;;;;;;22.73;81.59;100384.44;5005088;28;20603;-79
2023/09/04 11:25:24;;;;;;;2.80;1.77;;;;;;;22.41;82.95;100392.19;5027935;28;20249;-79
2023/09/04 11:27:52;;;;;;;2.75;1.95;;;;;;;22.40;83.65;100388.66;5017149;28;20731;-78